Latest Weather Observations for Frankston (Ballam Park)

IDV60901

Issued at 5:21 pm EDT Tuesday 19 January 2021 (issued every 10 minutes, with the page automatically refreshed every 10 minutes)

About weather observations | Map of Melbourne area stations | Latest observations for Melbourne area | Other Formats
Station Details ID: 086388 Name: FRANKSTON (BALLAM PARK) Lat: -38.15 Lon: 145.16 Height: 58.47 m
Data from the previous 72 hours. | See also: Recent months at Frankston (Ballam Park)
Date/Time
EDT
Temp
°C
App
Temp
°C
Dew
Point
°C
Rel
Hum
%
Delta-T
°C
Wind Press
QNH
hPa
Press
MSL
hPa
Rain since
9am
mm
Dir  Spd
km/h
Gust
km/h
Spd
kts
Gust
kts
19/05:00pm 16.8 13.9 6.3 50 5.1 SSE 11 26 6 14 1023.4 1023.3 0.0
19/04:30pm 17.0 13.5 5.6 47 5.5 SSE 13 20 7 11 1023.5 1023.4 0.0
19/04:00pm 17.0 13.5 5.3 46 5.6 S 13 22 7 12 1023.5 1023.4 0.0
19/03:30pm 16.9 13.2 6.1 49 5.3 S 15 26 8 14 1023.6 1023.5 0.0
19/03:00pm 17.0 13.3 6.2 49 5.3 SSE 15 24 8 13 1023.7 1023.6 0.0
19/02:30pm 17.3 14.1 6.8 50 5.2 S 13 24 7 13 1023.6 1023.5 0.0
19/02:00pm 17.6 14.3 8.2 54 4.8 S 15 28 8 15 1023.7 1023.6 0.0
19/01:30pm 17.3 14.3 5.9 47 5.6 S 11 20 6 11 1024.0 1023.9 0.0
19/01:00pm 16.9 13.5 5.8 48 5.4 S 13 22 7 12 1024.3 1024.2 0.0
19/12:30pm 16.3 13.2 5.6 49 5.2 S 11 19 6 10 1024.3 1024.2 0.0
19/12:00pm 16.3 13.1 6.7 53 4.7 SSE 13 20 7 11 1024.4 1024.3 0.0
19/11:30am 16.5 13.1 5.8 49 5.2 SSE 13 24 7 13 1024.2 1024.1 0.0
19/11:00am 16.5 12.5 4.9 46 5.5 S 15 24 8 13 1024.2 1024.1 0.0
19/10:30am 16.4 13.4 7.6 56 4.4 S 13 22 7 12 1024.1 1024.0 0.0
19/10:00am 15.4 11.9 5.6 52 4.7 S 13 24 7 13 1023.9 1023.8 0.0
19/09:30am 15.2 12.2 6.2 55 4.4 S 11 24 6 13 1023.5 1023.4 0.0
19/09:00am 14.6 13.1 6.7 59 3.8 SSW 4 9 2 5 1023.3 1023.2 0.2
19/08:30am 14.7 12.3 6.8 59 3.9 SSW 9 13 5 7 1022.9 1022.8 0.2
19/08:00am 13.8 11.1 5.7 58 3.8 S 9 19 5 10 1022.5 1022.4 0.2
19/07:30am 13.0 12.3 7.0 67 2.9 CALM 0 4 0 2 1022.2 1022.1 0.2
19/07:00am 12.2 11.5 7.1 71 2.4 CALM 0 4 0 2 1021.8 1021.7 0.2
19/06:30am 11.4 10.7 7.1 75 2.1 CALM 0 2 0 1 1021.4 1021.2 0.2
19/06:00am 11.0 10.3 7.1 77 1.9 CALM 0 0 0 0 1021.1 1020.9 0.2
19/05:30am 11.1 9.9 6.6 74 2.1 SW 2 6 1 3 1020.7 1020.5 0.2
19/05:00am 11.9 10.4 7.0 72 2.3 SSW 4 7 2 4 1020.3 1020.1 0.2
19/04:30am 12.1 10.3 7.2 72 2.4 S 6 9 3 5 1020.0 1019.8 0.2
19/04:00am 12.4 10.6 7.3 71 2.5 SSW 6 9 3 5 1019.7 1019.5 0.2
19/03:30am 13.0 11.7 7.7 70 2.6 SSW 4 9 2 5 1019.5 1019.3 0.2
19/03:00am 13.4 11.8 8.0 70 2.7 SSW 6 9 3 5 1019.3 1019.1 0.2
19/02:30am 14.1 12.8 9.1 72 2.5 SSW 6 13 3 7 1019.2 1019.0 0.2
19/02:00am 14.0 12.8 9.6 75 2.3 SSW 6 7 3 4 1019.1 1018.9 0.2
19/01:30am 13.7 13.2 10.9 83 1.5 SSW 4 6 2 3 1019.1 1018.9 0.2
19/01:00am 14.7 13.7 11.1 79 1.9 SSW 7 15 4 8 1019.1 1018.9 0.2
19/12:30am 14.4 14.6 11.7 84 1.5 SW 2 7 1 4 1019.0 1018.8 0.2
19/12:00am 14.2 14.0 11.9 86 1.2 SSW 4 7 2 4 1019.0 1018.8 0.2
 
Date/Time
EDT
Temp
°C
App
Temp
°C
Dew
Point
°C
Rel
Hum
%
Delta-T
°C
Wind Press
QNH
hPa
Press
MSL
hPa
Rain since
9am
mm
Dir  Spd
km/h
Gust
km/h
Spd
kts
Gust
kts
18/11:30pm 14.2 13.7 11.9 86 1.2 SSW 6 9 3 5 1018.8 1018.6 0.2
18/11:00pm 14.2 13.7 11.9 86 1.2 SSW 6 11 3 6 1018.9 1018.7 0.2
18/10:30pm 14.5 14.5 12.4 87 1.1 SW 4 7 2 4 1018.8 1018.6 0.0
18/10:00pm 14.4 14.0 12.3 87 1.1 SW 6 9 3 5 1018.6 1018.4 0.0
18/09:30pm 14.4 13.7 12.1 86 1.2 SSW 7 15 4 8 1018.5 1018.3 0.0
18/09:00pm 15.4 14.0 11.0 75 2.3 SW 9 22 5 12 1018.0 1017.8 0.0
18/08:30pm 15.6 14.3 11.2 75 2.4 SSW 9 17 5 9 1017.7 1017.5 0.0
18/08:00pm 16.0 14.5 10.7 71 2.8 SSW 9 24 5 13 1017.2 1017.0 0.0
18/07:30pm 16.8 14.9 10.6 67 3.3 SSW 11 26 6 14 1016.9 1016.7 0.0
18/07:00pm 17.5 15.6 10.4 63 3.8 SSW 11 30 6 16 1016.5 1016.3 0.0
18/06:30pm 18.1 15.4 10.5 61 4.1 SSW 15 28 8 15 1016.2 1016.0 0.0
18/06:00pm 19.6 18.3 11.1 58 4.7 SW 9 32 5 17 1016.0 1015.8 0.0
18/05:30pm 19.7 17.6 11.2 58 4.7 WSW 13 28 7 15 1016.1 1015.9 0.0
18/05:00pm 19.2 16.5 10.5 57 4.7 SSW 15 30 8 16 1016.2 1016.0 0.0
18/04:30pm 18.8 17.1 11.1 61 4.2 SW 11 28 6 15 1016.4 1016.2 0.0
18/04:00pm 19.3 17.7 11.6 61 4.2 WSW 11 20 6 11 1016.2 1016.0 0.0
18/03:30pm 20.5 19.4 13.0 62 4.3 WSW 11 24 6 13 1016.2 1016.0 0.0
18/03:00pm 19.9 18.7 12.9 64 4.0 SW 11 19 6 10 1016.2 1016.0 0.0
18/02:30pm 20.1 19.1 12.3 61 4.4 WSW 9 24 5 13 1016.3 1016.1 0.0
18/02:00pm 19.6 18.0 11.6 60 4.4 WNW 11 17 6 9 1016.0 1015.8 0.0
18/01:30pm 19.6 18.9 12.1 62 4.2 WNW 7 15 4 8 1016.3 1016.1 0.0
18/01:00pm 18.9 18.1 11.7 63 4.0 WNW 7 15 4 8 1016.6 1016.4 0.0
18/12:30pm 18.8 17.2 11.4 62 4.1 WNW 11 20 6 11 1017.0 1016.8 0.0
18/12:00pm 17.7 16.3 11.0 65 3.6 W 9 22 5 12 1016.9 1016.7 0.0
18/11:30am 17.6 15.6 11.6 68 3.3 WNW 13 22 7 12 1017.0 1016.8 0.0
18/11:00am 16.8 15.2 11.5 71 2.9 W 11 20 6 11 1017.3 1017.1 0.0
18/10:30am 16.4 15.4 12.2 76 2.3 W 9 20 5 11 1017.5 1017.3 0.0
18/10:00am 15.3 14.7 11.7 79 1.9 WSW 6 17 3 9 1017.6 1017.4 0.0
18/09:30am 14.8 14.5 12.8 88 1.1 WSW 6 15 3 8 1017.7 1017.5 0.0
18/09:00am 14.9 14.4 12.2 84 1.5 W 6 13 3 7 1017.5 1017.3 0.2
18/08:30am 15.1 14.5 11.7 80 1.8 W 6 11 3 6 1017.2 1017.0 0.2
18/08:00am 14.8 14.2 11.8 82 1.6 W 6 11 3 6 1017.0 1016.8 0.0
18/07:30am 15.5 13.9 11.7 78 2.1 WNW 11 20 6 11 1016.8 1016.6 0.0
18/07:00am 15.3 14.4 11.3 77 2.1 WNW 7 13 4 7 1016.4 1016.2 0.0
18/06:30am 15.1 14.2 11.3 78 2.0 W 7 15 4 8 1016.5 1016.3 0.0
18/06:00am 15.2 13.8 11.0 76 2.2 W 9 20 5 11 1016.5 1016.3 0.0
18/05:30am 15.3 13.5 10.7 74 2.4 W 11 19 6 10 1016.4 1016.2 0.0
18/05:00am 15.3 14.3 10.9 75 2.3 WNW 7 17 4 9 1016.1 1015.9 0.0
18/04:30am 15.0 13.5 10.6 75 2.3 WNW 9 19 5 10 1016.0 1015.8 0.0
18/04:00am 14.7 13.1 10.1 74 2.4 NW 9 19 5 10 1016.2 1016.0 0.0
18/03:30am 14.8 13.0 9.4 70 2.8 NW 9 15 5 8 1016.5 1016.3 0.0
18/03:00am 14.6 13.3 10.0 74 2.4 W 7 13 4 7 1016.9 1016.7 0.0
18/02:30am 14.7 13.1 10.1 74 2.4 W 9 19 5 10 1017.2 1017.0 0.0
18/02:00am 14.8 13.7 10.8 77 2.1 WNW 7 13 4 7 1017.2 1017.0 0.0
18/01:30am 14.8 13.9 10.6 76 2.2 W 6 13 3 7 1017.4 1017.2 0.0
18/01:00am 14.9 13.9 10.3 74 2.4 W 6 15 3 8 1017.5 1017.3 0.0
18/12:30am 15.0 14.1 10.6 75 2.3 WSW 6 13 3 7 1017.7 1017.5 0.0
18/12:00am 14.2 14.0 10.6 79 1.9 SW 2 9 1 5 1018.0 1017.8 0.0
 
Date/Time
EDT
Temp
°C
App
Temp
°C
Dew
Point
°C
Rel
Hum
%
Delta-T
°C
Wind Press
QNH
hPa
Press
MSL
hPa
Rain since
9am
mm
Dir  Spd
km/h
Gust
km/h
Spd
kts
Gust
kts
17/11:30pm 13.4 13.1 10.0 80 1.8 SSW 2 7 1 4 1018.1 1017.9 0.0
17/11:00pm 13.5 12.7 9.7 78 1.9 SW 4 7 2 4 1018.2 1018.0 0.0
17/10:30pm 13.8 13.4 9.6 76 2.2 SSW 2 4 1 2 1018.2 1018.0 0.0
17/10:00pm 14.0 12.8 9.4 74 2.4 SSW 6 9 3 5 1018.2 1018.0 0.0
17/09:30pm 14.4 13.5 9.4 72 2.6 SSW 4 11 2 6 1018.0 1017.8 0.0
17/09:00pm 14.9 13.6 9.3 69 2.9 SSW 6 11 3 6 1018.0 1017.8 0.0
17/08:30pm 15.8 14.9 9.2 65 3.4 SSW 4 11 2 6 1017.7 1017.5 0.0
17/08:00pm 16.7 15.4 9.1 61 3.9 SW 6 11 3 6 1017.2 1017.0 0.0
17/07:30pm 17.8 16.6 9.7 59 4.3 SSW 6 11 3 6 1017.0 1016.8 0.0
17/07:00pm 18.6 17.2 9.7 56 4.7 SSW 7 11 4 6 1016.8 1016.6 0.0
17/06:30pm 18.9 17.5 9.4 54 5.0 SSW 7 17 4 9 1016.8 1016.6 0.0
17/06:00pm 19.1 17.3 9.6 54 5.0 SSW 9 17 5 9 1016.8 1016.6 0.0
17/05:30pm 19.3 18.0 9.8 54 5.1 SSW 7 15 4 8 1016.7 1016.5 0.0
17/05:00pm 19.5 18.0 9.1 51 5.5 WSW 7 15 4 8 1016.9 1016.7 0.0
17/04:30pm 19.1 17.5 8.7 51 5.4 WSW 7 20 4 11 1017.2 1017.0 0.0
17/04:00pm 19.5 18.1 9.7 53 5.2 W 7 17 4 9 1017.5 1017.3 0.0
17/03:30pm 18.6 16.5 8.3 51 5.3 W 9 19 5 10 1017.7 1017.5 0.0
17/03:00pm 18.7 16.6 8.1 50 5.4 W 9 30 5 16 1018.0 1017.8 0.0
17/02:30pm 18.6 16.9 8.3 51 5.3 W 7 20 4 11 1018.2 1018.0 0.0
17/02:00pm 18.8 17.1 8.5 51 5.3 W 7 22 4 12 1018.4 1018.2 0.0
17/01:30pm 18.0 15.6 7.1 49 5.5 W 9 19 5 10 1018.5 1018.3 0.0
17/01:00pm 18.5 16.7 9.3 55 4.8 W 9 22 5 12 1018.8 1018.6 0.0
17/12:30pm 17.5 15.4 8.1 54 4.8 WSW 9 22 5 12 1018.7 1018.5 0.0
17/12:00pm 17.0 14.7 7.4 53 4.8 W 9 20 5 11 1018.5 1018.3 0.0
17/11:30am 17.7 15.1 7.7 52 5.1 W 11 22 6 12 1018.4 1018.2 0.0
17/11:00am 17.0 14.9 8.2 56 4.5 WSW 9 17 5 9 1018.4 1018.2 0.0
17/10:30am 17.0 14.9 8.2 56 4.5 SW 9 19 5 10 1018.5 1018.3 0.0
17/10:00am 16.3 14.5 7.8 57 4.3 W 7 13 4 7 1018.3 1018.1 0.0
17/09:30am 15.8 13.8 7.3 57 4.2 SSW 7 17 4 9 1018.5 1018.3 0.0
17/09:00am 15.9 14.0 6.9 55 4.4 SW 6 19 3 10 1018.2 1018.0 1.0
17/08:30am 15.5 13.3 6.2 54 4.5 SSW 7 17 4 9 1017.9 1017.7 1.0
17/08:00am 15.0 13.1 7.5 61 3.7 SSW 7 13 4 7 1017.4 1017.2 1.0
17/07:30am 13.7 12.4 7.5 66 3.0 SSW 4 7 2 4 1017.2 1017.0 1.0
17/07:00am 13.2 12.4 8.1 71 2.5 SSW 2 9 1 5 1017.0 1016.8 1.0
17/06:30am 13.2 11.1 8.3 72 2.4 SSW 9 20 5 11 1016.7 1016.5 1.0
17/06:00am 13.7 12.8 7.9 68 2.9 SW 2 6 1 3 1016.3 1016.1 1.0
17/05:30am 13.8 13.1 8.6 71 2.6 SW 2 11 1 6 1016.1 1015.9 1.0
17/05:00am 13.5 12.8 8.6 72 2.5 SW 2 4 1 2 1016.0 1015.8 1.0
17/04:30am 13.5 12.9 7.5 67 2.9 CALM 0 0 0 0 1015.9 1015.7 1.0
17/04:00am 13.7 12.3 7.2 65 3.2 SW 4 13 2 7 1015.8 1015.6 1.0
17/03:30am 13.9 12.4 7.0 63 3.4 SW 4 9 2 5 1015.8 1015.6 1.0
17/03:00am 13.9 12.5 7.2 64 3.3 SSW 4 9 2 5 1015.8 1015.6 1.0
17/02:30am 13.9 13.0 7.9 67 3.0 SW 2 6 1 3 1015.9 1015.7 1.0
17/02:00am 13.9 12.7 8.1 68 2.9 SSW 4 11 2 6 1015.9 1015.7 1.0
17/01:30am 13.9 12.1 8.1 68 2.9 SSW 7 15 4 8 1015.8 1015.6 1.0
17/01:00am 13.4 12.0 7.4 67 2.9 SSW 4 7 2 4 1015.6 1015.4 1.0
17/12:30am 13.6 12.2 7.2 65 3.1 SW 4 9 2 5 1015.6 1015.4 1.0
17/12:00am 14.1 12.3 7.9 66 3.1 SSW 7 13 4 7 1015.6 1015.4 1.0
 
Date/Time
EDT
Temp
°C
App
Temp
°C
Dew
Point
°C
Rel
Hum
%
Delta-T
°C
Wind Press
QNH
hPa
Press
MSL
hPa
Rain since
9am
mm
Dir  Spd
km/h
Gust
km/h
Spd
kts
Gust
kts
16/11:30pm 14.0 13.1 9.4 74 2.4 SW 4 11 2 6 1015.5 1015.3 1.0
16/11:00pm 14.1 13.1 8.7 70 2.7 SSW 4 7 2 4 1015.5 1015.3 0.8
16/10:30pm 14.2 12.6 8.2 67 3.0 SW 6 15 3 8 1015.5 1015.3 0.8
16/10:00pm 14.4 12.7 7.7 64 3.3 SW 6 13 3 7 1015.4 1015.2 0.8
16/09:30pm 14.7 13.2 8.6 67 3.1 SW 6 19 3 10 1015.1 1014.9 0.8
16/09:00pm 14.9 13.0 9.1 68 3.0 SW 9 24 5 13 1015.0 1014.8 0.8
16/08:30pm 15.4 13.8 8.9 65 3.3 SW 7 22 4 12 1014.6 1014.4 0.8
16/08:00pm 15.7 13.3 8.7 63 3.6 SW 11 33 6 18 1014.3 1014.1 0.8
16/07:30pm 16.1 13.7 10.2 68 3.1 SW 13 35 7 19 1013.9 1013.7 0.8
16/07:00pm 16.0 14.4 10.3 69 3.0 WSW 9 22 5 12 1013.6 1013.4 0.8
16/06:30pm 15.7 14.8 11.5 76 2.3 WSW 7 20 4 11 1013.2 1013.0 0.8
16/06:00pm 14.7 13.8 12.7 88 1.1 SW 9 30 5 16 1013.2 1013.0 0.8
16/05:30pm 17.5 15.5 11.5 68 3.3 W 13 26 7 14 1012.9 1012.7 0.8

Latest Capital City Observations: Canberra | Sydney | Melbourne | Brisbane | Adelaide | Perth | Hobart | Darwin

Other formats

Comma delimited format used in spreadsheet applications
http://www.bom.gov.au/fwo/IDV60901/IDV60901.94876.axf

JavaScript Object Notation format (JSON) in row-major order
http://www.bom.gov.au/fwo/IDV60901/IDV60901.94876.json

Data quality

Most of these data are generated automatically and are frequently updated. Quality checks on data are not normally performed. It is possible for incorrect values to appear. Refer to information at About Latest Weather Observations and please check the disclaimer before using these data.